Airfield :
LOGIN :

Register | Disclaimer

   EN    FR    IT 

 










Legend :    VFR   Marginal VFR   IFR   Intensive IFR   Very Intensive IFR
Visi :
Ceiling :
>= 8 km
>= 3000ft
5 to 8 km
1000 to 3000 ft
1500m to 5 km
500 to 1000 ft
800 to 1500m
200 to 500 ft
< 800m
< 200 ft
Symbols :   Thunderstorms  Fog  Heavy snow  Heavy precipitations  Wind > 20 kt
SIGMETs :     Misc.  Thunderstorms  Icing  Turbulence  Mountain Waves  Volcanic Ashes






- Airport Elevation : 885 ft
- IATA code : BAS


LFSB - Bale-Mulhouse

CURRENT METAR :
  • 230800Z AUTO 25004KT 190V310 9999 4400 FEW018/// SCT084/// BKN150/// 15/12 Q1017

EXPIRED METARs :
  • 230730Z AUTO 28004KT 240V360 CAVOK 14/11 Q1017 TEMPO SHRA SCT025CB
  • 230700Z AUTO VRB01KT CAVOK 14/11 Q1017 TEMPO SHRA SCT025CB
  • 230630Z AUTO 09003KT 9999 FEW048 BKN180 BKN200 13/11 Q1017 TEMPO SHRA SCT025CB
  • 230600Z AUTO 13004KT CAVOK 12/11 Q1017 BECMG FEW025CB BKN030
  • 230530Z AUTO VRB02KT CAVOK 11/11 Q1016 BECMG FEW025CB BKN030
  • 230500Z AUTO VRB03KT CAVOK 11/10 Q1016 BECMG FEW025TCU BKN040
  • 230430Z AUTO VRB02KT CAVOK 10/10 Q1016 BECMG FEW025TCU BKN040
  • 230400Z AUTO VRB03KT CAVOK 09/09 Q1016 BECMG FEW025TCU BKN040
  • 230330Z AUTO VRB02KT CAVOK 10/09 Q1016 BECMG FEW025TCU BKN040

TAF TAF LFSB
Valid from the 23 at 06:00 until the 24 at 06:00 UTC


230500Z 2306/2406 26003KT 9999 FEW025CB BKN030
TEMPO 2308/2321 SHRA SCT025CB
PROB40
TEMPO 2310/2318 3000 TSRA
BECMG 2321/2323 CAVOK
Met : +33 3 89 90 31 11



MET'MAP, your aeronautical weather chart ! - Copyright ORBIFLY December 2007 - Disclaimer

ORBIFLY MET'MAP TEAM :

Programming & Development : Alexandra Zaïnal
Original concept : Baudouin d'Aumeries
Technical & hardware support : Manuel Goepfert
Assistance : Marc-Olivier Méhu




SOURCES & CREDITS :

   NOAA